Time;durP1;ratioP1;P1;durP2;ratioP2;P2;SDS_P1;SDS_P2;PMS_P1;PMS_P2;Temp;Humidity;BMP_temperature;BMP_pressure;BME280_temperature;BME280_humidity;BME280_pressure;Samples;Min_cycle;Max_cycle;Signal;HPM_P1;HPM_P2
2022/02/20 00:01:14;;;;;;;0.57;0.40;;;4.10;99.90;;;;;;5018775;28;20287;-78
2022/02/20 00:03:40;;;;;;;0.40;0.40;;;4.20;99.90;;;;;;5011264;28;20227;-78
2022/02/20 00:06:06;;;;;;;0.67;0.40;;;4.20;99.90;;;;;;5004618;28;20223;-80
2022/02/20 00:08:32;;;;;;;1.03;0.40;;;4.20;99.90;;;;;;5017568;28;20191;-78
2022/02/20 00:11:03;;;;;;;0.67;0.40;;;4.20;99.90;;;;;;5017256;28;20555;-78
2022/02/20 00:13:29;;;;;;;0.70;0.30;;;4.20;99.90;;;;;;5016542;28;20191;-80
2022/02/20 00:15:56;;;;;;;0.30;0.30;;;4.30;99.90;;;;;;5003081;28;20184;-77
2022/02/20 00:18:21;;;;;;;0.53;0.37;;;4.30;99.90;;;;;;5003346;28;20184;-80
2022/02/20 00:20:49;;;;;;;1.30;0.57;;;4.30;99.90;;;;;;5002177;28;20185;-79
2022/02/20 00:23:17;;;;;;;0.50;0.47;;;4.40;99.90;;;;;;5003036;28;20189;-80
2022/02/20 00:25:44;;;;;;;0.60;0.37;;;4.30;99.90;;;;;;5018177;28;20606;-79
2022/02/20 00:28:10;;;;;;;0.37;0.37;;;4.30;99.90;;;;;;5019459;28;20237;-76
2022/02/20 00:30:37;;;;;;;1.10;0.50;;;4.40;99.90;;;;;;5003474;28;20210;-77
2022/02/20 00:33:03;;;;;;;0.50;0.40;;;4.40;99.90;;;;;;5017352;28;20180;-79
2022/02/20 00:35:33;;;;;;;0.23;0.20;;;4.40;99.90;;;;;;4998164;28;20249;-77
2022/02/20 00:37:59;;;;;;;1.30;0.40;;;4.40;99.90;;;;;;4996803;28;20179;-77
2022/02/20 00:40:25;;;;;;;0.30;0.30;;;4.30;99.90;;;;;;4998032;28;20674;-77
2022/02/20 00:42:51;;;;;;;0.70;0.40;;;4.30;99.90;;;;;;5015718;28;20353;-78
2022/02/20 00:45:17;;;;;;;0.30;0.30;;;4.20;99.90;;;;;;5003181;28;20223;-78
2022/02/20 00:47:43;;;;;;;0.30;0.30;;;4.10;99.90;;;;;;5000738;28;20184;-78
2022/02/20 00:50:10;;;;;;;1.30;0.40;;;4.00;99.90;;;;;;5016954;28;20708;-78
2022/02/20 00:52:36;;;;;;;1.67;0.40;;;3.90;99.90;;;;;;5001082;28;20591;-78
2022/02/20 00:55:02;;;;;;;0.60;0.40;;;3.90;99.90;;;;;;5013535;28;20225;-76
2022/02/20 00:57:28;;;;;;;0.30;0.30;;;3.90;99.90;;;;;;4997809;28;20188;-77
2022/02/20 00:59:54;;;;;;;2.00;0.40;;;3.90;99.90;;;;;;4999960;28;20230;-79
2022/02/20 01:02:20;;;;;;;0.77;0.50;;;3.90;99.90;;;;;;4999439;28;20199;-76
2022/02/20 01:04:46;;;;;;;0.50;0.40;;;3.90;99.90;;;;;;4999146;28;20207;-77
2022/02/20 01:07:11;;;;;;;0.57;0.37;;;4.00;99.90;;;;;;4998985;28;20215;-76
2022/02/20 01:09:37;;;;;;;0.80;0.40;;;4.00;99.90;;;;;;4998674;28;20596;-78
2022/02/20 01:12:03;;;;;;;0.80;0.50;;;4.00;99.90;;;;;;4997527;28;20184;-78
2022/02/20 01:14:29;;;;;;;1.30;0.30;;;3.90;99.90;;;;;;5013702;28;20218;-78
2022/02/20 01:16:55;;;;;;;0.70;0.60;;;3.90;99.90;;;;;;5016070;28;20211;-77
2022/02/20 01:19:20;;;;;;;0.50;0.40;;;3.90;99.90;;;;;;5000772;28;20204;-76
2022/02/20 01:21:46;;;;;;;0.73;0.40;;;3.90;99.90;;;;;;5000481;28;20190;-79
2022/02/20 01:24:11;;;;;;;0.60;0.40;;;3.90;99.90;;;;;;4999645;28;20262;-79
2022/02/20 01:26:37;;;;;;;0.30;0.30;;;3.90;99.90;;;;;;5015591;28;20211;-78
2022/02/20 01:29:04;;;;;;;1.57;0.50;;;4.00;99.90;;;;;;4997498;28;20210;-77
2022/02/20 01:31:29;;;;;;;0.67;0.40;;;4.10;99.90;;;;;;4996243;28;20183;-77
2022/02/20 01:33:55;;;;;;;0.57;0.40;;;4.10;99.90;;;;;;4999165;28;20180;-77
2022/02/20 01:36:20;;;;;;;0.30;0.30;;;4.10;99.90;;;;;;4995920;28;20665;-77
2022/02/20 01:38:46;;;;;;;0.53;0.30;;;4.10;99.90;;;;;;4995660;28;20235;-76
2022/02/20 01:41:15;;;;;;;0.30;0.30;;;4.20;99.90;;;;;;4994982;28;20195;-80
2022/02/20 01:43:41;;;;;;;0.30;0.30;;;4.20;99.90;;;;;;5011013;28;20278;-75
2022/02/20 01:46:06;;;;;;;0.30;0.30;;;4.10;99.90;;;;;;4995250;28;20295;-75
2022/02/20 01:48:35;;;;;;;0.47;0.30;;;4.10;99.90;;;;;;5012006;28;20267;-79
2022/02/20 01:51:01;;;;;;;0.20;0.20;;;4.00;99.90;;;;;;5017375;28;20177;-79
2022/02/20 01:53:27;;;;;;;0.27;0.20;;;3.90;99.90;;;;;;5015881;28;20245;-79
2022/02/20 01:55:53;;;;;;;0.20;0.20;;;3.90;99.90;;;;;;5000895;28;20270;-79
2022/02/20 01:58:19;;;;;;;0.60;0.30;;;3.80;99.90;;;;;;5016873;28;20179;-79
2022/02/20 02:00:46;;;;;;;0.47;0.30;;;3.80;99.90;;;;;;4999825;28;20231;-76
2022/02/20 02:03:15;;;;;;;0.70;0.40;;;3.80;99.90;;;;;;5016690;28;20223;-79
2022/02/20 02:05:41;;;;;;;1.20;0.40;;;3.80;99.90;;;;;;5016506;28;20212;-79
2022/02/20 02:08:06;;;;;;;0.60;0.40;;;3.80;99.90;;;;;;5000575;28;20258;-77
2022/02/20 02:10:32;;;;;;;0.30;0.30;;;3.70;99.90;;;;;;5001214;28;20218;-78
2022/02/20 02:12:58;;;;;;;0.40;0.30;;;3.70;99.90;;;;;;5018189;28;20267;-78
2022/02/20 02:15:23;;;;;;;0.30;0.30;;;3.70;99.90;;;;;;4996760;28;20222;-79
2022/02/20 02:17:49;;;;;;;0.67;0.40;;;3.70;99.90;;;;;;5001122;28;20184;-79
2022/02/20 02:20:15;;;;;;;0.40;0.40;;;3.70;99.90;;;;;;5000614;28;20291;-77
2022/02/20 02:22:40;;;;;;;0.63;0.60;;;3.80;99.90;;;;;;5015538;28;20203;-78
2022/02/20 02:25:07;;;;;;;0.30;0.30;;;3.80;99.90;;;;;;4998519;28;20575;-80
2022/02/20 02:27:32;;;;;;;1.30;0.40;;;3.80;99.90;;;;;;5014101;28;20187;-80
2022/02/20 02:29:58;;;;;;;0.50;0.50;;;3.80;99.90;;;;;;4999863;28;20226;-79
2022/02/20 02:32:24;;;;;;;0.40;0.40;;;3.80;99.90;;;;;;5002555;28;20184;-79
2022/02/20 02:34:50;;;;;;;0.60;0.60;;;3.80;99.90;;;;;;5000898;28;20188;-80
2022/02/20 02:37:16;;;;;;;0.87;0.60;;;3.80;99.90;;;;;;5000506;28;20184;-79
2022/02/20 02:39:42;;;;;;;1.57;0.60;;;3.80;99.90;;;;;;5014805;28;20982;-78
2022/02/20 02:42:08;;;;;;;0.53;0.53;;;3.90;99.90;;;;;;4998467;28;20201;-79
2022/02/20 02:44:34;;;;;;;0.70;0.60;;;4.00;99.90;;;;;;4998125;28;20637;-79
2022/02/20 02:47:00;;;;;;;1.40;0.63;;;4.00;99.90;;;;;;4997590;28;20184;-77
2022/02/20 02:49:26;;;;;;;1.17;0.90;;;4.00;99.90;;;;;;4998713;28;20207;-78
2022/02/20 02:51:52;;;;;;;0.60;0.60;;;4.00;99.90;;;;;;4999481;28;20615;-79
2022/02/20 02:54:18;;;;;;;1.00;0.60;;;4.10;99.90;;;;;;4998191;28;20216;-79
2022/02/20 02:56:44;;;;;;;0.70;0.70;;;4.20;99.90;;;;;;4999762;28;20218;-79
2022/02/20 02:59:10;;;;;;;0.70;0.57;;;4.20;99.90;;;;;;5001837;28;20195;-79
2022/02/20 03:01:36;;;;;;;1.00;0.90;;;4.20;99.90;;;;;;5003594;28;20646;-79
2022/02/20 03:04:01;;;;;;;1.07;0.60;;;4.20;99.90;;;;;;5005460;28;20882;-79
2022/02/20 03:06:27;;;;;;;0.80;0.70;;;4.20;99.90;;;;;;5001925;28;20675;-79
2022/02/20 03:08:52;;;;;;;0.70;0.70;;;4.20;99.90;;;;;;5002358;28;20215;-79
2022/02/20 03:11:18;;;;;;;1.03;0.93;;;4.30;99.90;;;;;;5002518;28;20661;-78
2022/02/20 03:13:44;;;;;;;0.80;0.73;;;4.30;99.90;;;;;;5018427;28;20187;-78
2022/02/20 03:16:10;;;;;;;0.70;0.70;;;4.30;99.90;;;;;;5003626;28;20202;-79
2022/02/20 03:18:36;;;;;;;1.43;0.90;;;4.40;99.90;;;;;;5006500;28;20211;-80
2022/02/20 03:21:05;;;;;;;1.30;0.90;;;4.50;99.90;;;;;;5004096;28;20191;-80
2022/02/20 03:23:30;;;;;;;2.57;1.17;;;4.50;99.90;;;;;;5004675;28;20250;-79
2022/02/20 03:25:56;;;;;;;1.07;0.97;;;4.60;99.90;;;;;;5001188;28;20203;-78
2022/02/20 03:28:22;;;;;;;1.30;1.20;;;4.60;99.90;;;;;;4999568;28;20705;-78
2022/02/20 03:30:48;;;;;;;1.80;1.50;;;4.60;99.90;;;;;;4999153;28;20674;-78
2022/02/20 03:33:14;;;;;;;2.70;1.83;;;4.70;99.90;;;;;;5001649;28;20287;-79
2022/02/20 03:35:40;;;;;;;5.10;2.20;;;4.70;99.90;;;;;;4997858;28;20247;-79
2022/02/20 03:38:07;;;;;;;2.70;2.07;;;4.80;99.90;;;;;;4999159;28;20204;-79
2022/02/20 03:40:33;;;;;;;2.73;1.77;;;4.90;99.90;;;;;;5000658;28;20262;-79
2022/02/20 03:42:59;;;;;;;4.83;1.83;;;5.00;99.90;;;;;;5004602;28;20290;-79
2022/02/20 03:45:26;;;;;;;1.40;1.20;;;5.00;99.90;;;;;;5007324;28;20239;-78
2022/02/20 03:47:52;;;;;;;1.30;1.20;;;5.00;99.90;;;;;;5002889;28;20518;-78
2022/02/20 03:50:18;;;;;;;1.40;1.30;;;5.00;99.90;;;;;;5003547;28;20210;-78
2022/02/20 03:52:44;;;;;;;1.60;1.23;;;5.10;99.90;;;;;;5017455;28;20682;-78
2022/02/20 03:55:10;;;;;;;1.67;1.30;;;5.10;99.90;;;;;;5003946;28;20188;-79
2022/02/20 03:57:36;;;;;;;3.07;1.90;;;5.00;99.90;;;;;;5018408;28;20198;-79
2022/02/20 04:00:12;;;;;;;2.30;1.70;;;5.10;99.90;;;;;;5004785;28;20204;-79
2022/02/20 04:02:38;;;;;;;3.00;1.73;;;5.20;99.90;;;;;;5003017;28;20210;-78
2022/02/20 04:05:05;;;;;;;1.67;1.50;;;5.10;99.90;;;;;;5010884;28;20211;-78
2022/02/20 04:07:31;;;;;;;1.77;1.50;;;5.20;99.90;;;;;;5015245;28;20196;-80
2022/02/20 04:09:57;;;;;;;1.90;1.70;;;5.20;99.90;;;;;;5014116;28;20354;-78
2022/02/20 04:12:22;;;;;;;3.83;1.60;;;5.20;99.90;;;;;;4999901;28;20757;-78
2022/02/20 04:14:48;;;;;;;2.13;1.37;;;5.30;99.90;;;;;;4998003;28;20189;-77
2022/02/20 04:17:13;;;;;;;2.60;1.40;;;5.30;99.90;;;;;;5010715;28;20251;-79
2022/02/20 04:19:39;;;;;;;2.30;1.47;;;5.30;99.90;;;;;;4996311;28;20235;-79
2022/02/20 04:22:04;;;;;;;3.90;1.70;;;5.30;99.90;;;;;;4997671;28;20193;-78
2022/02/20 04:24:30;;;;;;;3.37;1.20;;;5.30;99.90;;;;;;4995457;28;20666;-79
2022/02/20 04:26:56;;;;;;;1.30;1.17;;;5.20;99.90;;;;;;5013186;28;20204;-79
2022/02/20 04:29:21;;;;;;;2.47;0.93;;;5.30;99.90;;;;;;5013323;28;20245;-77
2022/02/20 04:31:47;;;;;;;3.37;1.50;;;5.20;99.90;;;;;;4997974;28;20191;-79
2022/02/20 04:34:12;;;;;;;2.70;1.00;;;5.20;99.90;;;;;;4998686;28;20195;-79
2022/02/20 04:36:38;;;;;;;2.33;1.20;;;5.20;99.90;;;;;;5014049;28;20263;-79
2022/02/20 04:39:06;;;;;;;2.60;1.20;;;5.20;99.90;;;;;;5012824;28;20717;-76
2022/02/20 04:41:31;;;;;;;2.07;1.27;;;5.10;99.90;;;;;;5003561;28;20183;-79
2022/02/20 04:43:57;;;;;;;3.03;1.40;;;5.10;99.90;;;;;;4996493;28;20187;-79
2022/02/20 04:46:23;;;;;;;3.33;1.30;;;5.20;99.90;;;;;;4995419;28;20672;-80
2022/02/20 04:48:49;;;;;;;4.30;1.50;;;5.10;99.90;;;;;;5015043;28;20732;-78
2022/02/20 04:51:15;;;;;;;2.80;1.30;;;5.10;99.90;;;;;;4995084;28;20289;-80
2022/02/20 04:53:40;;;;;;;1.77;1.40;;;5.10;99.90;;;;;;5011175;28;20188;-80
2022/02/20 04:56:06;;;;;;;1.83;1.40;;;5.00;99.90;;;;;;4997177;28;20183;-77
2022/02/20 04:58:32;;;;;;;2.83;1.40;;;5.10;99.90;;;;;;5012435;28;20212;-79
2022/02/20 05:00:58;;;;;;;3.03;1.70;;;5.00;99.90;;;;;;5011011;28;20267;-79
2022/02/20 05:03:23;;;;;;;1.83;1.10;;;4.90;99.90;;;;;;4995091;28;20342;-79
2022/02/20 05:05:49;;;;;;;2.07;1.23;;;4.80;99.90;;;;;;4993768;28;20207;-75
2022/02/20 05:08:15;;;;;;;1.87;1.60;;;4.70;99.90;;;;;;5009387;28;20180;-78
2022/02/20 05:10:40;;;;;;;4.30;1.90;;;4.60;99.90;;;;;;4996357;28;20213;-80
2022/02/20 05:13:06;;;;;;;2.20;1.70;;;4.60;99.90;;;;;;4994841;28;20200;-81
2022/02/20 05:15:32;;;;;;;3.47;2.10;;;4.60;99.90;;;;;;5010166;28;20327;-81
2022/02/20 05:17:58;;;;;;;2.10;1.90;;;4.60;99.90;;;;;;4995681;28;20298;-78
2022/02/20 05:20:24;;;;;;;1.83;1.50;;;4.50;99.90;;;;;;5012174;28;20302;-78
2022/02/20 05:22:49;;;;;;;2.50;1.83;;;4.60;99.90;;;;;;4995782;28;20188;-78
2022/02/20 05:25:16;;;;;;;2.07;1.63;;;4.60;99.90;;;;;;4993816;28;20203;-79
2022/02/20 05:27:45;;;;;;;2.73;1.90;;;4.60;99.90;;;;;;4997281;28;20168;-80
2022/02/20 05:30:16;;;;;;;3.23;2.30;;;4.60;99.90;;;;;;4996055;28;20199;-80
2022/02/20 05:32:42;;;;;;;2.73;2.33;;;4.60;99.90;;;;;;4994031;28;20191;-78
2022/02/20 05:35:08;;;;;;;3.57;2.83;;;4.70;99.90;;;;;;5009869;28;20274;-78
2022/02/20 05:37:48;;;;;;;3.97;2.83;;;4.60;99.90;;;;;;4991512;28;20629;-78
2022/02/20 05:40:18;;;;;;;3.13;2.20;;;4.60;99.90;;;;;;4996400;28;20214;-79
2022/02/20 05:42:44;;;;;;;2.63;2.30;;;4.60;99.90;;;;;;5012260;28;20700;-78
2022/02/20 05:45:10;;;;;;;3.60;2.37;;;4.50;99.90;;;;;;4995222;28;20208;-76
2022/02/20 05:47:37;;;;;;;4.03;2.70;;;4.60;99.90;;;;;;5011155;28;20176;-77
2022/02/20 05:50:05;;;;;;;2.63;2.10;;;4.50;99.90;;;;;;5002677;28;20202;-78
2022/02/20 05:52:30;;;;;;;4.37;2.37;;;4.60;99.90;;;;;;5011974;28;20597;-79
2022/02/20 05:54:56;;;;;;;2.47;2.20;;;4.60;99.90;;;;;;5009338;28;20218;-79
2022/02/20 05:57:22;;;;;;;4.13;2.20;;;4.50;99.90;;;;;;4998170;28;20231;-79
2022/02/20 05:59:47;;;;;;;2.80;2.60;;;4.60;99.90;;;;;;4996789;28;20290;-78
2022/02/20 06:02:13;;;;;;;3.00;2.70;;;4.50;99.90;;;;;;4996326;28;20199;-79
2022/02/20 06:04:39;;;;;;;4.43;2.80;;;4.50;99.90;;;;;;4993728;28;20188;-77
2022/02/20 06:07:05;;;;;;;2.97;2.37;;;4.50;99.90;;;;;;4998697;28;20176;-78
2022/02/20 06:09:30;;;;;;;4.30;2.73;;;4.50;99.90;;;;;;4994316;28;20580;-80
2022/02/20 06:11:56;;;;;;;4.57;3.63;;;4.50;99.90;;;;;;5010557;28;20211;-80
2022/02/20 06:14:22;;;;;;;4.03;2.90;;;4.50;99.90;;;;;;4995741;28;20233;-77
2022/02/20 06:16:47;;;;;;;4.70;2.70;;;4.50;99.90;;;;;;5007945;28;20669;-78
2022/02/20 06:19:13;;;;;;;4.90;3.80;;;4.50;99.90;;;;;;4994931;28;20242;-75
2022/02/20 06:21:39;;;;;;;5.43;4.10;;;4.50;99.90;;;;;;5011265;28;20187;-79
2022/02/20 06:24:05;;;;;;;6.27;3.83;;;4.60;99.90;;;;;;5008596;28;20180;-78
2022/02/20 06:26:31;;;;;;;6.93;4.23;;;4.50;99.90;;;;;;5011592;28;20203;-78
2022/02/20 06:28:56;;;;;;;5.97;4.50;;;4.50;99.90;;;;;;5007198;28;20674;-79
2022/02/20 06:31:22;;;;;;;5.17;3.90;;;4.50;99.90;;;;;;5009154;28;20207;-76
2022/02/20 06:33:51;;;;;;;6.00;4.67;;;4.40;99.90;;;;;;5007276;28;20718;-77
2022/02/20 06:36:16;;;;;;;5.37;4.13;;;4.50;99.90;;;;;;5008483;28;20229;-77
2022/02/20 06:38:42;;;;;;;7.17;4.43;;;4.40;99.90;;;;;;5009772;28;20695;-78
2022/02/20 06:41:10;;;;;;;4.50;3.77;;;4.40;99.90;;;;;;5007927;28;20179;-77
2022/02/20 06:43:36;;;;;;;5.73;4.17;;;4.40;99.90;;;;;;5001866;28;20192;-76
2022/02/20 06:46:02;;;;;;;7.37;4.80;;;4.50;99.90;;;;;;5011726;28;20219;-78
2022/02/20 06:48:27;;;;;;;5.90;4.03;;;4.50;99.90;;;;;;5010993;28;20208;-78
2022/02/20 06:50:53;;;;;;;5.10;3.90;;;4.50;99.90;;;;;;5006688;28;20176;-78
2022/02/20 06:53:19;;;;;;;5.13;3.83;;;4.50;99.90;;;;;;4986901;28;20191;-78
2022/02/20 06:55:44;;;;;;;6.17;4.43;;;4.50;99.90;;;;;;4988735;28;20200;-78
2022/02/20 06:58:10;;;;;;;5.53;4.57;;;4.60;99.90;;;;;;5001004;28;20188;-77
2022/02/20 07:00:35;;;;;;;7.33;4.20;;;4.60;99.90;;;;;;5001968;28;20228;-77
2022/02/20 07:03:01;;;;;;;6.60;4.10;;;4.50;99.90;;;;;;4983065;28;20204;-78
2022/02/20 07:05:26;;;;;;;4.63;3.33;;;4.60;99.90;;;;;;4986689;28;20820;-76
2022/02/20 07:07:52;;;;;;;4.87;3.23;;;4.60;99.90;;;;;;4983576;28;20689;-77
2022/02/20 07:10:18;;;;;;;4.77;2.77;;;4.70;99.90;;;;;;4981913;28;20698;-76
2022/02/20 07:12:43;;;;;;;3.67;2.43;;;4.70;99.90;;;;;;4993023;28;20192;-78
2022/02/20 07:15:09;;;;;;;4.63;2.60;;;4.80;99.90;;;;;;5008509;28;20386;-77
2022/02/20 07:17:36;;;;;;;4.37;1.93;;;4.80;99.90;;;;;;4990306;28;20701;-76
2022/02/20 07:20:03;;;;;;;3.70;1.90;;;4.80;99.90;;;;;;4985053;28;20208;-78
2022/02/20 07:22:33;;;;;;;3.57;1.77;;;4.80;99.90;;;;;;5012321;28;20188;-77
2022/02/20 07:24:59;;;;;;;2.50;1.87;;;4.90;99.90;;;;;;4985824;28;20246;-76
2022/02/20 07:27:25;;;;;;;4.00;1.70;;;5.00;99.90;;;;;;5002593;28;20740;-81
2022/02/20 07:29:50;;;;;;;4.07;1.90;;;4.90;99.90;;;;;;5007089;28;20211;-75
2022/02/20 07:32:16;;;;;;;3.20;1.77;;;5.00;99.90;;;;;;4984799;28;20662;-79
2022/02/20 07:34:42;;;;;;;2.20;1.50;;;5.00;99.90;;;;;;4985850;28;20271;-78
2022/02/20 07:37:07;;;;;;;4.40;2.00;;;5.00;99.90;;;;;;4998388;28;20682;-78
2022/02/20 07:39:33;;;;;;;3.93;1.80;;;5.00;99.90;;;;;;4987854;28;20984;-79
2022/02/20 07:41:59;;;;;;;2.10;1.50;;;5.10;99.90;;;;;;4985788;28;20184;-78
2022/02/20 07:44:25;;;;;;;3.40;1.80;;;5.00;99.90;;;;;;4999194;28;20184;-79
2022/02/20 07:46:51;;;;;;;2.53;1.60;;;5.00;99.90;;;;;;5008980;28;20222;-81
2022/02/20 07:49:17;;;;;;;2.80;2.17;;;5.00;99.90;;;;;;5006742;28;20694;-78
2022/02/20 07:51:42;;;;;;;2.30;1.77;;;4.90;99.90;;;;;;5009472;28;20184;-78
2022/02/20 07:54:08;;;;;;;1.80;1.70;;;4.90;99.90;;;;;;5016760;28;20203;-80
2022/02/20 07:56:34;;;;;;;2.43;1.50;;;4.90;99.90;;;;;;5006463;28;20667;-81
2022/02/20 07:58:59;;;;;;;2.33;1.70;;;4.90;99.90;;;;;;5018116;28;20570;-80
2022/02/20 08:01:25;;;;;;;1.70;1.50;;;5.00;99.90;;;;;;5017509;28;20190;-79
2022/02/20 08:03:51;;;;;;;2.60;1.60;;;5.00;99.90;;;;;;5001599;28;20334;-78
2022/02/20 08:06:18;;;;;;;2.70;1.60;;;5.10;99.90;;;;;;4999962;28;20247;-77
2022/02/20 08:08:43;;;;;;;2.60;1.67;;;5.20;99.90;;;;;;5003298;28;20682;-78
2022/02/20 08:11:09;;;;;;;2.80;1.67;;;5.20;99.90;;;;;;5001321;28;20184;-77
2022/02/20 08:13:34;;;;;;;3.20;1.60;;;5.20;99.90;;;;;;5001304;28;20196;-78
2022/02/20 08:16:00;;;;;;;1.97;1.80;;;5.20;99.90;;;;;;5015749;28;20185;-78
2022/02/20 08:18:26;;;;;;;3.17;1.90;;;5.20;99.90;;;;;;5000789;28;20190;-78
2022/02/20 08:20:52;;;;;;;2.40;1.60;;;5.30;99.90;;;;;;5001758;28;20230;-78
2022/02/20 08:23:18;;;;;;;3.70;2.00;;;5.30;99.90;;;;;;5015447;28;20202;-78
2022/02/20 08:25:45;;;;;;;3.17;1.93;;;5.30;99.90;;;;;;5015449;28;20334;-78
2022/02/20 08:28:11;;;;;;;2.27;1.90;;;5.20;99.90;;;;;;5000898;28;20263;-78
2022/02/20 08:30:36;;;;;;;2.50;2.10;;;5.30;99.90;;;;;;5002911;28;20208;-78
2022/02/20 08:33:03;;;;;;;2.47;2.13;;;5.40;99.90;;;;;;5002748;28;20224;-78
2022/02/20 08:35:29;;;;;;;3.27;2.17;;;5.40;99.90;;;;;;5000047;28;20676;-78
2022/02/20 08:37:55;;;;;;;3.37;2.33;;;5.40;99.90;;;;;;5003399;28;20206;-79
2022/02/20 08:40:20;;;;;;;3.73;2.40;;;5.50;99.90;;;;;;4999678;28;20242;-78
2022/02/20 08:42:48;;;;;;;2.07;1.87;;;5.50;99.90;;;;;;5001616;28;20171;-79
2022/02/20 08:45:15;;;;;;;2.80;1.70;;;5.50;99.90;;;;;;5007913;28;20215;-78
2022/02/20 08:47:41;;;;;;;5.17;2.50;;;5.40;99.90;;;;;;4999427;28;20279;-77
2022/02/20 08:50:11;;;;;;;2.57;2.37;;;5.50;99.90;;;;;;5000001;28;20199;-79
2022/02/20 08:52:37;;;;;;;2.80;2.50;;;5.60;99.90;;;;;;5008488;28;20219;-80
2022/02/20 08:55:04;;;;;;;4.37;2.40;;;5.60;99.90;;;;;;4999261;28;20191;-78
2022/02/20 08:57:30;;;;;;;4.87;2.70;;;5.60;99.90;;;;;;5000090;28;20883;-78
2022/02/20 08:59:57;;;;;;;2.93;2.27;;;5.60;99.90;;;;;;5003743;28;20214;-77
2022/02/20 09:02:22;;;;;;;4.37;2.90;;;5.60;99.90;;;;;;5016439;28;20197;-79
2022/02/20 09:04:49;;;;;;;3.07;2.67;;;5.60;99.90;;;;;;5001927;28;20191;-77
2022/02/20 09:07:14;;;;;;;3.37;2.13;;;5.60;99.90;;;;;;5018010;28;20616;-80
2022/02/20 09:09:40;;;;;;;2.77;2.53;;;5.60;99.90;;;;;;4998012;28;20299;-76
2022/02/20 09:12:07;;;;;;;4.40;2.70;;;5.60;99.90;;;;;;4998506;28;20176;-78
2022/02/20 09:14:33;;;;;;;3.20;2.40;;;5.60;99.90;;;;;;5011429;28;20267;-77
2022/02/20 09:17:00;;;;;;;3.80;2.73;;;5.50;99.90;;;;;;4999008;28;20219;-79
2022/02/20 09:19:26;;;;;;;5.17;2.30;;;5.50;99.90;;;;;;4999108;28;20195;-80
2022/02/20 09:21:52;;;;;;;3.53;2.50;;;5.50;99.90;;;;;;5001855;28;20299;-78
2022/02/20 09:24:17;;;;;;;3.90;2.13;;;5.40;99.90;;;;;;4997138;28;21041;-78
2022/02/20 09:26:43;;;;;;;3.60;2.80;;;5.40;99.90;;;;;;5003831;28;20207;-79
2022/02/20 09:29:10;;;;;;;2.63;2.20;;;5.40;99.90;;;;;;5002463;28;20208;-80
2022/02/20 09:31:36;;;;;;;3.10;2.20;;;5.50;99.90;;;;;;5004640;28;20226;-77
2022/02/20 09:34:01;;;;;;;2.67;1.80;;;5.50;99.90;;;;;;5017912;28;20179;-78
2022/02/20 09:36:27;;;;;;;3.30;2.07;;;5.50;99.90;;;;;;5003459;28;20222;-77
2022/02/20 09:38:54;;;;;;;3.53;1.80;;;5.50;99.90;;;;;;5002057;28;20218;-78
2022/02/20 09:41:31;;;;;;;2.60;1.70;;;5.60;99.90;;;;;;5000661;28;20709;-80
2022/02/20 09:43:58;;;;;;;3.17;1.63;;;5.60;99.90;;;;;;4998424;28;20187;-77
2022/02/20 09:46:24;;;;;;;2.10;1.60;;;5.60;99.90;;;;;;4997742;28;20227;-77
2022/02/20 09:48:54;;;;;;;3.17;2.10;;;5.70;99.90;;;;;;4995848;28;20657;-78
2022/02/20 09:51:20;;;;;;;1.90;1.63;;;5.70;99.90;;;;;;4997129;28;20597;-77
2022/02/20 09:53:46;;;;;;;2.63;1.90;;;5.80;99.90;;;;;;4995878;28;20183;-77
2022/02/20 09:56:13;;;;;;;3.63;1.53;;;5.90;99.90;;;;;;4995048;28;20674;-80
2022/02/20 09:58:39;;;;;;;1.47;1.30;;;5.80;99.90;;;;;;4996972;28;20204;-81
2022/02/20 10:01:14;;;;;;;3.73;2.00;;;5.80;99.90;;;;;;4998918;28;20188;-77
2022/02/20 10:03:41;;;;;;;2.50;1.80;;;5.80;99.90;;;;;;5003486;28;20273;-82
2022/02/20 10:06:10;;;;;;;2.37;1.40;;;5.90;99.90;;;;;;4993577;28;20219;-77
2022/02/20 10:08:50;;;;;;;2.60;1.67;;;6.00;99.90;;;;;;5010656;28;20350;-76
2022/02/20 10:11:24;;;;;;;2.63;1.30;;;6.10;99.90;;;;;;4995376;28;20183;-78
2022/02/20 10:14:02;;;;;;;1.70;1.30;;;6.10;99.90;;;;;;5009687;28;20183;-76
2022/02/20 10:16:31;;;;;;;2.10;1.20;;;6.10;99.90;;;;;;4991904;28;20192;-80
2022/02/20 10:18:59;;;;;;;2.30;1.10;;;6.10;99.90;;;;;;4996786;28;20267;-78
2022/02/20 10:21:27;;;;;;;3.30;1.07;;;6.10;99.90;;;;;;5006695;28;20227;-79
2022/02/20 10:23:55;;;;;;;2.33;1.50;;;6.10;99.90;;;;;;5001301;28;20187;-76
2022/02/20 10:26:25;;;;;;;1.60;1.10;;;6.20;99.90;;;;;;4993238;28;20613;-78
2022/02/20 10:29:10;;;;;;;6.00;2.43;;;6.20;99.90;;;;;;4993980;28;20207;-79
2022/02/20 10:31:48;;;;;;;3.17;1.90;;;6.30;99.90;;;;;;5002450;28;20188;-78
2022/02/20 10:34:15;;;;;;;1.40;1.20;;;6.40;99.90;;;;;;5007333;28;20199;-79
2022/02/20 10:36:56;;;;;;;1.33;1.20;;;6.40;99.90;;;;;;4995624;28;20187;-80
2022/02/20 10:39:26;;;;;;;1.20;1.10;;;6.40;99.90;;;;;;5002402;28;21108;-77
2022/02/20 10:41:53;;;;;;;3.33;0.90;;;6.50;99.90;;;;;;5009526;28;20198;-77
2022/02/20 10:44:20;;;;;;;2.50;0.80;;;6.60;99.90;;;;;;4991242;28;20192;-79
2022/02/20 10:46:45;;;;;;;2.07;1.20;;;6.60;99.90;;;;;;4993923;28;20555;-81
2022/02/20 10:49:27;;;;;;;2.20;0.80;;;6.70;99.90;;;;;;5010482;28;20203;-78
2022/02/20 10:51:54;;;;;;;1.47;0.60;;;6.70;99.90;;;;;;5002182;28;20218;-78
2022/02/20 10:54:20;;;;;;;2.20;0.77;;;6.80;99.90;;;;;;4992369;28;20203;-77
2022/02/20 10:56:47;;;;;;;1.67;0.70;;;6.90;99.90;;;;;;5010510;28;20192;-78
2022/02/20 10:59:13;;;;;;;2.53;0.80;;;6.90;99.90;;;;;;4993754;28;20325;-81
2022/02/20 11:01:39;;;;;;;1.10;0.70;;;6.90;99.90;;;;;;5009053;28;20278;-78
2022/02/20 11:04:10;;;;;;;0.70;0.70;;;7.00;99.90;;;;;;5002124;28;20278;-78
2022/02/20 11:06:49;;;;;;;1.93;0.90;;;7.10;99.90;;;;;;5003127;28;20208;-78
2022/02/20 11:09:15;;;;;;;0.77;0.70;;;7.10;99.90;;;;;;5013584;28;20236;-78
2022/02/20 11:11:49;;;;;;;1.10;0.40;;;7.10;99.90;;;;;;4996057;28;20270;-78
2022/02/20 11:14:18;;;;;;;1.23;0.50;;;7.20;99.90;;;;;;5001372;28;20204;-80
2022/02/20 11:16:51;;;;;;;0.50;0.40;;;7.20;99.90;;;;;;4995364;28;20191;-80
2022/02/20 11:19:27;;;;;;;1.53;0.50;;;7.30;99.90;;;;;;5001865;28;20301;-77
2022/02/20 11:22:00;;;;;;;1.47;0.50;;;7.40;99.90;;;;;;4999085;28;20188;-77
2022/02/20 11:24:29;;;;;;;0.40;0.40;;;7.40;99.90;;;;;;4998891;28;20192;-79
2022/02/20 11:26:57;;;;;;;1.80;0.60;;;7.40;99.90;;;;;;4998430;28;20679;-78
2022/02/20 11:29:23;;;;;;;0.60;0.60;;;7.40;99.90;;;;;;4997460;28;20278;-79
2022/02/20 11:31:49;;;;;;;1.10;0.43;;;7.40;99.90;;;;;;5001467;28;20184;-79
2022/02/20 11:34:16;;;;;;;1.43;0.57;;;7.40;99.90;;;;;;4998436;28;20602;-78
2022/02/20 11:36:56;;;;;;;1.83;0.53;;;7.40;99.90;;;;;;5014922;28;20197;-78
2022/02/20 11:39:23;;;;;;;0.30;0.30;;;7.50;99.90;;;;;;4997499;28;20226;-79
2022/02/20 11:42:12;;;;;;;0.30;0.30;;;7.50;99.90;;;;;;5013221;28;20183;-78
2022/02/20 11:44:48;;;;;;;1.50;0.40;;;7.60;99.90;;;;;;4999474;28;20194;-78
2022/02/20 11:47:45;;;;;;;2.90;1.93;;;7.60;99.90;;;;;;4996694;28;20183;-78
2022/02/20 11:50:17;;;;;;;2.77;0.77;;;7.70;99.90;;;;;;4996241;28;20215;-78
2022/02/20 11:52:55;;;;;;;0.67;0.47;;;7.60;99.90;;;;;;5006694;28;20188;-78
2022/02/20 11:55:29;;;;;;;1.27;0.60;;;7.60;99.90;;;;;;4995778;28;20203;-78
2022/02/20 11:58:21;;;;;;;0.40;0.40;;;7.60;99.90;;;;;;5013028;28;20179;-80
2022/02/20 12:00:55;;;;;;;1.20;0.40;;;7.60;99.90;;;;;;4998528;28;20207;-81
2022/02/20 12:03:22;;;;;;;0.60;0.40;;;7.60;99.90;;;;;;4998533;28;20207;-79
2022/02/20 12:06:20;;;;;;;0.53;0.40;;;7.60;99.90;;;;;;4997808;28;20219;-80
2022/02/20 12:08:57;;;;;;;1.33;0.60;;;7.70;99.90;;;;;;5005711;28;20200;-79
2022/02/20 12:11:35;;;;;;;1.23;0.70;;;7.70;99.90;;;;;;4999156;28;20173;-78
2022/02/20 12:14:19;;;;;;;0.43;0.40;;;7.80;99.90;;;;;;4998337;28;20717;-79
2022/02/20 12:16:53;;;;;;;0.50;0.30;;;7.80;99.90;;;;;;4999531;28;20183;-78
2022/02/20 12:19:33;;;;;;;1.30;0.50;;;7.80;99.90;;;;;;5012862;28;20220;-79
2022/02/20 12:22:29;;;;;;;1.63;0.40;;;7.80;99.90;;;;;;4997109;28;20534;-78
2022/02/20 12:25:01;;;;;;;0.37;0.33;;;7.90;99.90;;;;;;4997767;28;20199;-79
2022/02/20 12:27:35;;;;;;;1.07;0.40;;;8.00;99.90;;;;;;5013081;28;20184;-79
2022/02/20 12:30:13;;;;;;;2.03;0.40;;;8.00;99.90;;;;;;5012194;28;20287;-78
2022/02/20 12:32:47;;;;;;;1.70;0.30;;;8.00;99.90;;;;;;5000842;28;20190;-80
2022/02/20 12:35:21;;;;;;;1.37;0.50;;;8.10;99.90;;;;;;5006025;28;20184;-80
2022/02/20 12:37:52;;;;;;;0.20;0.20;;;8.10;99.90;;;;;;4998148;28;20199;-81
2022/02/20 12:40:30;;;;;;;0.33;0.30;;;8.10;99.90;;;;;;5014465;28;20200;-80
2022/02/20 12:43:03;;;;;;;0.27;0.20;;;8.20;99.90;;;;;;5015192;28;20191;-80
2022/02/20 12:45:31;;;;;;;0.50;0.40;;;8.20;99.90;;;;;;5013964;28;20278;-78
2022/02/20 12:47:59;;;;;;;1.70;0.40;;;8.30;99.90;;;;;;4999875;28;20267;-79
2022/02/20 12:50:34;;;;;;;0.83;0.40;;;8.40;99.90;;;;;;4999900;28;20230;-79
2022/02/20 12:53:02;;;;;;;1.30;0.50;;;8.40;99.90;;;;;;5017349;28;20187;-78
2022/02/20 12:55:29;;;;;;;0.50;0.50;;;8.40;99.90;;;;;;4997791;28;20253;-79
2022/02/20 12:58:04;;;;;;;0.93;0.50;;;8.40;99.90;;;;;;4999847;28;20199;-78
2022/02/20 13:00:33;;;;;;;2.57;1.40;;;8.50;99.90;;;;;;4998471;28;20643;-79